createdAt,value
2018-04-09T00:00:13.457Z,81.68
2018-04-09T00:01:13.464Z,80.64
2018-04-09T00:02:13.475Z,80.54
2018-04-09T00:03:13.486Z,80.79
2018-04-09T00:04:13.499Z,81.49
2018-04-09T00:05:13.517Z,80.83
2018-04-09T00:06:13.518Z,80.44
2018-04-09T00:07:13.529Z,79.68
2018-04-09T00:08:13.537Z,78.83
2018-04-09T00:09:13.554Z,80.44
2018-04-09T00:10:13.557Z,80.16
2018-04-09T00:11:13.575Z,79.68
2018-04-09T00:12:13.580Z,80.44
2018-04-09T00:13:13.587Z,80.54
2018-04-09T00:14:13.599Z,80.60
2018-04-09T00:15:13.607Z,79.74
2018-04-09T00:16:13.617Z,78.98
2018-04-09T00:17:13.642Z,78.31
2018-04-09T00:18:13.637Z,78.22
2018-04-09T00:19:13.647Z,78.54
2018-04-09T00:20:13.664Z,78.88
2018-04-09T00:21:13.668Z,79.74
2018-04-09T00:22:13.682Z,79.93
2018-04-09T00:23:13.686Z,79.64
2018-04-09T00:24:13.702Z,79.83
2018-04-09T00:25:13.708Z,80.50
2018-04-09T00:26:13.723Z,81.26
2018-04-09T00:27:13.727Z,81.36
2018-04-09T00:28:13.744Z,81.60
2018-04-09T00:29:13.751Z,81.70
2018-04-09T00:30:13.760Z,83.03
2018-04-09T00:31:13.767Z,82.56
2018-04-09T00:32:13.781Z,82.08
2018-04-09T00:33:13.785Z,82.93
2018-04-09T00:34:13.806Z,83.41
2018-04-09T00:35:13.810Z,84.13
2018-04-09T00:36:13.816Z,84.08
2018-04-09T00:37:13.824Z,84.08
2018-04-09T00:38:13.842Z,83.80
2018-04-09T00:39:13.848Z,83.80
2018-04-09T00:40:13.865Z,83.13
2018-04-09T00:41:13.870Z,83.03
2018-04-09T00:42:13.876Z,83.32
2018-04-09T00:43:13.889Z,83.89
2018-04-09T00:44:13.895Z,83.80
2018-04-09T00:45:13.907Z,82.37
2018-04-09T00:46:13.927Z,82.37
2018-04-09T00:47:13.925Z,82.41
2018-04-09T00:48:13.934Z,82.18
2018-04-09T00:49:13.945Z,82.89
2018-04-09T00:50:13.961Z,83.26
2018-04-09T00:51:13.963Z,82.56
2018-04-09T00:52:13.975Z,82.46
2018-04-09T00:53:14.045Z,81.79
2018-04-09T00:54:13.995Z,83.03
2018-04-09T00:55:14.010Z,82.75
2018-04-09T00:56:14.014Z,83.51
2018-04-09T00:57:14.022Z,83.70
2018-04-09T00:58:14.036Z,82.75
2018-04-09T00:59:14.047Z,82.37
2018-04-09T01:00:14.051Z,82.37
2018-04-09T01:01:14.062Z,82.84
2018-04-09T01:02:14.074Z,83.13
2018-04-09T01:03:14.083Z,83.41
2018-04-09T01:04:14.094Z,82.56
2018-04-09T01:05:14.110Z,82.65
2018-04-09T01:06:14.110Z,83.89
2018-04-09T01:07:14.120Z,85.03
2018-04-09T01:08:14.131Z,84.84
2018-04-09T01:09:14.143Z,83.32
2018-04-09T01:10:14.153Z,83.13
2018-04-09T01:11:14.166Z,82.84
2018-04-09T01:12:14.172Z,81.79
2018-04-09T01:13:14.181Z,81.79
2018-04-09T01:14:14.190Z,82.65
2018-04-09T01:15:14.199Z,82.93
2018-04-09T01:16:14.210Z,82.51
2018-04-09T01:17:14.225Z,82.42
2018-04-09T01:18:14.233Z,82.80
2018-04-09T01:19:14.242Z,83.56
2018-04-09T01:20:14.253Z,83.75
2018-04-09T01:21:14.261Z,84.61
2018-04-09T01:22:14.267Z,84.80
2018-04-09T01:23:14.283Z,84.61
2018-04-09T01:24:14.286Z,84.80
2018-04-09T01:25:14.296Z,83.56
2018-04-09T01:26:14.305Z,83.47
2018-04-09T01:27:14.325Z,84.61
2018-04-09T01:28:14.327Z,84.33
2018-04-09T01:29:14.339Z,83.75
2018-04-09T01:30:14.346Z,83.85
2018-04-09T01:31:14.357Z,82.70
2018-04-09T01:32:14.365Z,82.90
2018-04-09T01:33:14.376Z,83.65
2018-04-09T01:34:14.383Z,83.56
2018-04-09T01:35:14.436Z,82.99
2018-04-09T01:36:14.400Z,84.04
2018-04-09T01:37:14.414Z,84.33
2018-04-09T01:38:14.425Z,83.85
2018-04-09T01:39:14.434Z,84.13
2018-04-09T01:40:14.438Z,85.18
2018-04-09T01:41:14.462Z,83.65
2018-04-09T01:42:14.458Z,84.70
2018-04-09T01:43:14.470Z,82.70
2018-04-09T01:44:14.481Z,82.90
2018-04-09T01:45:14.492Z,83.47
2018-04-09T01:46:14.498Z,83.13
2018-04-09T01:47:14.510Z,83.75
2018-04-09T01:48:14.527Z,83.85
2018-04-09T01:49:14.531Z,84.04
2018-04-09T01:50:14.535Z,83.37
2018-04-09T01:51:14.545Z,83.75
2018-04-09T01:52:14.557Z,82.99
2018-04-09T01:53:14.568Z,83.94
2018-04-09T01:54:14.578Z,82.90
2018-04-09T01:55:14.584Z,83.18
2018-04-09T01:56:14.595Z,83.47
2018-04-09T01:57:14.604Z,83.75
2018-04-09T01:58:14.615Z,84.04
2018-04-09T01:59:14.623Z,84.13
2018-04-09T02:00:14.638Z,83.65
2018-04-09T02:01:14.642Z,83.94
2018-04-09T02:02:14.650Z,84.52
2018-04-09T02:03:14.660Z,84.42
2018-04-09T02:04:14.672Z,84.04
2018-04-09T02:05:14.682Z,84.42
2018-04-09T02:06:14.684Z,84.13
2018-04-09T02:07:14.706Z,83.37
2018-04-09T02:08:14.708Z,82.61
2018-04-09T02:09:14.722Z,83.65
2018-04-09T02:10:14.728Z,83.47
2018-04-09T02:11:14.739Z,83.75
2018-04-09T02:12:14.748Z,83.18
2018-04-09T02:13:14.757Z,84.04
2018-04-09T02:14:14.767Z,83.75
2018-04-09T02:15:14.778Z,83.47
2018-04-09T02:16:14.789Z,83.09
2018-04-09T02:17:14.797Z,83.37
2018-04-09T02:18:14.805Z,83.47
2018-04-09T02:19:14.812Z,83.65
2018-04-09T02:20:14.825Z,84.04
2018-04-09T02:21:14.832Z,83.09
2018-04-09T02:22:14.841Z,83.47
2018-04-09T02:23:14.859Z,84.23
2018-04-09T02:24:14.866Z,84.13
2018-04-09T02:25:14.873Z,83.94
2018-04-09T02:26:14.880Z,84.04
2018-04-09T02:27:14.890Z,85.28
2018-04-09T02:28:14.903Z,84.80
2018-04-09T02:29:14.917Z,85.18
2018-04-09T02:30:14.916Z,85.37
2018-04-09T02:31:14.925Z,85.28
2018-04-09T02:32:14.938Z,85.18
2018-04-09T02:33:14.949Z,84.42
2018-04-09T02:34:14.955Z,84.80
2018-04-09T02:35:14.968Z,84.70
2018-04-09T02:36:14.978Z,84.80
2018-04-09T02:37:14.981Z,84.80
2018-04-09T02:38:14.992Z,84.76
2018-04-09T02:39:15.003Z,85.14
2018-04-09T02:40:15.012Z,85.80
2018-04-09T02:41:15.043Z,85.61
2018-04-09T02:42:15.028Z,85.71
2018-04-09T02:43:15.042Z,86.66
2018-04-09T02:44:15.050Z,87.13
2018-04-09T02:45:15.067Z,86.47
2018-04-09T02:46:15.067Z,87.42
2018-04-09T02:47:15.074Z,87.04
2018-04-09T02:48:15.095Z,87.52
2018-04-09T02:49:15.095Z,86.76
2018-04-09T02:50:15.107Z,87.04
2018-04-09T02:51:15.117Z,86.47
2018-04-09T02:52:15.121Z,86.38
2018-04-09T02:53:15.130Z,86.47
2018-04-09T02:54:15.149Z,86.85
2018-04-09T02:55:15.148Z,86.18
2018-04-09T02:56:15.164Z,86.47
2018-04-09T02:57:15.183Z,85.99
2018-04-09T02:58:15.182Z,85.71
2018-04-09T02:59:15.191Z,85.99
2018-04-09T03:00:15.213Z,85.80
2018-04-09T03:01:15.210Z,86.47
2018-04-09T03:02:15.217Z,86.57
2018-04-09T03:03:15.225Z,86.85
2018-04-09T03:04:15.237Z,87.42
2018-04-09T03:05:15.245Z,86.94
2018-04-09T03:06:15.265Z,87.04
2018-04-09T03:07:15.263Z,87.23
2018-04-09T03:08:15.284Z,86.57
2018-04-09T03:09:15.311Z,86.76
2018-04-09T03:10:15.290Z,87.42
2018-04-09T03:11:15.295Z,87.42
2018-04-09T03:12:15.311Z,86.85
2018-04-09T03:13:15.317Z,87.32
2018-04-09T03:14:15.325Z,87.13
2018-04-09T03:15:15.332Z,86.18
2018-04-09T03:16:15.342Z,86.18
2018-04-09T03:17:15.358Z,87.13
2018-04-09T03:18:15.368Z,87.71
2018-04-09T03:19:15.373Z,87.42
2018-04-09T03:20:15.385Z,87.04
2018-04-09T03:21:15.402Z,87.99
2018-04-09T03:22:15.403Z,87.80
2018-04-09T03:23:15.414Z,87.13
2018-04-09T03:24:15.431Z,86.94
2018-04-09T03:25:15.432Z,87.23
2018-04-09T03:26:15.439Z,87.13
2018-04-09T03:27:15.448Z,86.76
2018-04-09T03:28:15.463Z,85.80
2018-04-09T03:29:15.466Z,85.42
2018-04-09T03:30:15.479Z,85.71
2018-04-09T03:31:15.484Z,86.47
2018-04-09T03:32:15.491Z,87.23
2018-04-09T03:33:15.501Z,87.13
2018-04-09T03:34:15.510Z,87.32
2018-04-09T03:35:15.521Z,87.32
2018-04-09T03:36:15.540Z,87.42
2018-04-09T03:37:15.546Z,88.18
2018-04-09T03:38:15.547Z,87.32
2018-04-09T03:39:15.563Z,88.56
2018-04-09T03:40:15.569Z,87.99
2018-04-09T03:41:16.079Z,87.99
2018-04-09T03:42:15.595Z,87.80
2018-04-09T03:43:15.594Z,88.18
2018-04-09T03:44:15.642Z,87.42
2018-04-09T03:45:15.619Z,87.80
2018-04-09T03:46:15.630Z,87.99
2018-04-09T03:47:15.631Z,88.18
2018-04-09T03:48:15.658Z,88.18
2018-04-09T03:49:15.652Z,88.28
2018-04-09T03:50:15.662Z,88.18
2018-04-09T03:51:15.671Z,88.75
2018-04-09T03:52:15.676Z,88.28
2018-04-09T03:53:15.689Z,88.09
2018-04-09T03:54:15.705Z,88.09
2018-04-09T03:55:15.702Z,87.80
2018-04-09T03:56:15.717Z,86.76
2018-04-09T03:57:15.723Z,87.04
2018-04-09T03:58:15.787Z,87.52
2018-04-09T03:59:15.746Z,88.33
2018-04-09T04:00:15.751Z,88.13
2018-04-09T04:01:15.762Z,88.23
2018-04-09T04:02:15.771Z,88.61
2018-04-09T04:03:15.780Z,88.37
2018-04-09T04:04:15.789Z,89.04
2018-04-09T04:05:15.812Z,88.85
2018-04-09T04:06:15.807Z,89.04
2018-04-09T04:07:15.818Z,88.46
2018-04-09T04:08:15.825Z,88.66
2018-04-09T04:09:15.836Z,88.37
2018-04-09T04:10:15.845Z,88.18
2018-04-09T04:11:15.861Z,88.46
2018-04-09T04:12:15.859Z,88.37
2018-04-09T04:13:15.873Z,88.18
2018-04-09T04:14:15.883Z,87.52
2018-04-09T04:15:15.887Z,87.42
2018-04-09T04:16:15.899Z,87.04
2018-04-09T04:17:15.913Z,86.09
2018-04-09T04:18:15.916Z,85.71
2018-04-09T04:19:15.930Z,85.80
2018-04-09T04:20:15.936Z,86.47
2018-04-09T04:21:15.945Z,86.66
2018-04-09T04:22:15.960Z,86.76
2018-04-09T04:23:15.972Z,87.52
2018-04-09T04:24:15.972Z,87.99
2018-04-09T04:25:15.981Z,88.09
2018-04-09T04:26:15.990Z,88.18
2018-04-09T04:27:15.997Z,87.32
2018-04-09T04:28:16.010Z,87.42
2018-04-09T04:29:16.020Z,87.13
2018-04-09T04:30:16.028Z,87.42
2018-04-09T04:31:16.035Z,87.23
2018-04-09T04:32:16.044Z,87.99
2018-04-09T04:33:16.053Z,87.28
2018-04-09T04:34:16.063Z,88.09
2018-04-09T04:35:16.079Z,88.28
2018-04-09T04:36:16.082Z,88.09
2018-04-09T04:37:16.098Z,88.28
2018-04-09T04:38:16.100Z,87.95
2018-04-09T04:39:16.146Z,88.13
2018-04-09T04:40:16.119Z,88.61
2018-04-09T04:41:16.133Z,89.32
2018-04-09T04:42:16.143Z,88.85
2018-04-09T04:43:16.144Z,89.51
2018-04-09T04:44:16.148Z,89.51
2018-04-09T04:45:16.170Z,89.14
2018-04-09T04:46:16.174Z,88.66
2018-04-09T04:47:16.188Z,88.66
2018-04-09T04:48:16.191Z,86.99
2018-04-09T04:49:16.197Z,87.47
2018-04-09T04:50:16.208Z,88.23
2018-04-09T04:51:16.215Z,88.42
2018-04-09T04:52:16.227Z,88.80
2018-04-09T04:53:16.242Z,88.61
2018-04-09T04:54:16.242Z,89.00
2018-04-09T04:55:16.253Z,88.90
2018-04-09T04:56:16.264Z,89.56
2018-04-09T04:57:16.272Z,89.56
2018-04-09T04:58:16.281Z,90.14
2018-04-09T04:59:16.302Z,89.00
2018-04-09T05:00:16.293Z,89.18
2018-04-09T05:01:16.303Z,88.04
2018-04-09T05:02:16.313Z,88.61
2018-04-09T05:03:16.322Z,89.00
2018-04-09T05:04:16.332Z,89.00
2018-04-09T05:05:16.346Z,89.09
2018-04-09T05:06:16.349Z,89.56
2018-04-09T05:07:16.358Z,89.56
2018-04-09T05:08:16.367Z,89.47
2018-04-09T05:09:16.375Z,89.09
2018-04-09T05:10:16.382Z,88.42
2018-04-09T05:11:16.397Z,89.28
2018-04-09T05:12:16.402Z,89.37
2018-04-09T05:13:16.411Z,88.90
2018-04-09T05:14:16.426Z,89.56
2018-04-09T05:15:16.426Z,89.66
2018-04-09T05:16:16.436Z,88.90
2018-04-09T05:17:16.488Z,89.00
2018-04-09T05:18:16.458Z,89.66
2018-04-09T05:19:16.465Z,89.75
2018-04-09T05:20:16.473Z,89.94
2018-04-09T05:21:16.483Z,89.85
2018-04-09T05:22:16.492Z,90.42
2018-04-09T05:23:16.504Z,89.56
2018-04-09T05:24:16.510Z,89.00
2018-04-09T05:25:16.519Z,89.09
2018-04-09T05:26:16.529Z,89.28
2018-04-09T05:27:16.538Z,89.23
2018-04-09T05:28:16.546Z,89.28
2018-04-09T05:29:16.559Z,88.71
2018-04-09T05:30:16.564Z,89.23
2018-04-09T05:31:16.572Z,88.94
2018-04-09T05:32:16.582Z,89.32
2018-04-09T05:33:16.590Z,89.89
2018-04-09T05:34:16.601Z,89.70
2018-04-09T05:35:16.618Z,89.80
2018-04-09T05:36:16.620Z,90.37
2018-04-09T05:37:16.628Z,90.18
2018-04-09T05:38:16.636Z,90.47
2018-04-09T05:39:16.644Z,90.08
2018-04-09T05:40:16.659Z,89.70
2018-04-09T05:41:16.670Z,90.08
2018-04-09T05:42:16.677Z,89.80
2018-04-09T05:43:16.683Z,89.89
2018-04-09T05:44:16.690Z,90.37
2018-04-09T05:45:16.701Z,89.89
2018-04-09T05:46:16.710Z,89.32
2018-04-09T05:47:16.722Z,88.94
2018-04-09T05:48:16.726Z,89.80
2018-04-09T05:49:16.743Z,89.89
2018-04-09T05:50:16.749Z,90.28
2018-04-09T05:51:16.753Z,89.51
2018-04-09T05:52:16.765Z,89.51
2018-04-09T05:53:16.783Z,89.51
2018-04-09T05:54:16.782Z,89.89
2018-04-09T05:55:16.796Z,89.61
2018-04-09T05:56:16.802Z,89.61
2018-04-09T05:57:16.811Z,89.14
2018-04-09T05:58:16.822Z,89.80
2018-04-09T05:59:16.826Z,89.70
2018-04-09T06:00:16.840Z,90.47
2018-04-09T06:01:16.847Z,89.99
2018-04-09T06:02:16.856Z,91.03
2018-04-09T06:03:16.868Z,91.13
2018-04-09T06:04:16.875Z,90.37
2018-04-09T06:05:16.885Z,90.47
2018-04-09T06:06:16.901Z,90.84
2018-04-09T06:07:16.904Z,90.37
2018-04-09T06:08:16.913Z,90.22
2018-04-09T06:09:16.920Z,90.22
2018-04-09T06:10:16.929Z,89.89
2018-04-09T06:11:16.940Z,89.75
2018-04-09T06:12:16.958Z,90.51
2018-04-09T06:13:16.957Z,91.17
2018-04-09T06:14:16.965Z,91.37
2018-04-09T06:15:16.982Z,91.94
2018-04-09T06:16:16.990Z,91.27
2018-04-09T06:17:16.994Z,91.46
2018-04-09T06:18:17.014Z,91.94
2018-04-09T06:19:17.010Z,92.99
2018-04-09T06:20:17.024Z,93.08
2018-04-09T06:21:17.032Z,93.18
2018-04-09T06:22:17.045Z,93.55
2018-04-09T06:23:17.055Z,93.18
2018-04-09T06:24:17.067Z,93.65
2018-04-09T06:25:17.070Z,93.18
2018-04-09T06:26:17.080Z,93.55
2018-04-09T06:27:17.087Z,92.99
2018-04-09T06:28:17.098Z,93.27
2018-04-09T06:29:17.106Z,93.32
2018-04-09T06:30:17.121Z,93.60
2018-04-09T06:31:17.129Z,93.89
2018-04-09T06:32:17.137Z,93.32
2018-04-09T06:33:17.146Z,93.22
2018-04-09T06:34:17.157Z,93.03
2018-04-09T06:35:17.162Z,92.74
2018-04-09T06:36:17.181Z,92.65
2018-04-09T06:37:17.184Z,92.94
2018-04-09T06:38:17.193Z,92.46
2018-04-09T06:39:17.498Z,92.18
2018-04-09T06:40:17.266Z,91.99
2018-04-09T06:41:17.219Z,91.70
2018-04-09T06:42:17.239Z,91.51
2018-04-09T06:43:17.237Z,91.13
2018-04-09T06:44:17.249Z,91.08
2018-04-09T06:45:17.261Z,90.98
2018-04-09T06:46:17.270Z,91.17
2018-04-09T06:47:17.277Z,91.17
2018-04-09T06:48:17.291Z,91.08
2018-04-09T06:49:17.301Z,91.36
2018-04-09T06:50:17.307Z,90.89
2018-04-09T06:51:17.315Z,90.98
2018-04-09T06:52:17.325Z,91.27
2018-04-09T06:53:17.337Z,91.65
2018-04-09T06:54:17.354Z,92.50
2018-04-09T06:55:17.369Z,92.50
2018-04-09T06:56:17.363Z,92.32
2018-04-09T06:57:17.373Z,92.50
2018-04-09T06:58:17.398Z,92.41
2018-04-09T06:59:17.393Z,93.46
2018-04-09T07:00:17.412Z,94.60
2018-04-09T07:01:17.416Z,94.70
2018-04-09T07:02:17.426Z,94.41
2018-04-09T07:03:17.434Z,94.98
2018-04-09T07:04:17.469Z,93.55
2018-04-09T07:05:17.455Z,94.93
2018-04-09T07:06:17.470Z,93.98
2018-04-09T07:07:17.475Z,94.46
2018-04-09T07:08:17.488Z,94.46
2018-04-09T07:09:17.497Z,94.46
2018-04-09T07:10:17.505Z,95.03
2018-04-09T07:11:17.515Z,96.08
2018-04-09T07:12:17.526Z,96.65
2018-04-09T07:13:17.539Z,96.65
2018-04-09T07:14:17.546Z,96.84
2018-04-09T07:15:17.556Z,96.65
2018-04-09T07:16:17.571Z,96.75
2018-04-09T07:17:17.575Z,96.32
2018-04-09T07:18:17.585Z,95.84
2018-04-09T07:19:17.599Z,94.51
2018-04-09T07:20:17.613Z,93.46
2018-04-09T07:21:17.619Z,92.12
2018-04-09T07:22:17.629Z,92.88
2018-04-09T07:23:17.638Z,92.88
2018-04-09T07:24:17.646Z,92.50
2018-04-09T07:25:17.696Z,92.22
2018-04-09T07:26:17.671Z,92.32
2018-04-09T07:27:17.679Z,91.27
2018-04-09T07:28:17.695Z,91.36
2018-04-09T07:29:17.720Z,91.17
2018-04-09T07:30:17.712Z,90.64
2018-04-09T07:31:17.719Z,90.17
2018-04-09T07:32:17.740Z,90.03
2018-04-09T07:33:17.741Z,89.45
2018-04-09T07:34:17.750Z,90.07
2018-04-09T07:35:17.762Z,90.07
2018-04-09T07:36:17.775Z,89.50
2018-04-09T07:37:17.781Z,89.12
2018-04-09T07:38:17.802Z,88.92
2018-04-09T07:39:17.803Z,90.73
2018-04-09T07:40:17.814Z,91.31
2018-04-09T07:41:17.825Z,90.93
2018-04-09T07:42:17.835Z,90.31
2018-04-09T07:43:17.856Z,89.83
2018-04-09T07:44:17.863Z,89.45
2018-04-09T07:45:17.870Z,88.97
2018-04-09T07:46:17.880Z,89.92
2018-04-09T07:47:17.889Z,90.02
2018-04-09T07:48:17.900Z,89.45
2018-04-09T07:49:17.911Z,88.78
2018-04-09T07:50:17.929Z,88.40
2018-04-09T07:51:17.933Z,88.97
2018-04-09T07:52:17.944Z,87.35
2018-04-09T07:53:17.953Z,87.82
2018-04-09T07:54:17.968Z,87.77
2018-04-09T07:55:17.978Z,87.35
2018-04-09T07:56:17.995Z,87.35
2018-04-09T07:57:18.000Z,87.35
2018-04-09T07:58:18.009Z,87.73
2018-04-09T07:59:18.029Z,87.48
2018-04-09T08:00:18.033Z,87.20
2018-04-09T08:01:18.048Z,86.63
2018-04-09T08:02:18.056Z,86.24
2018-04-09T08:03:18.073Z,85.00
2018-04-09T08:04:18.079Z,84.91
2018-04-09T08:05:18.090Z,86.34
2018-04-09T08:06:18.113Z,86.96
2018-04-09T08:07:18.111Z,87.24
2018-04-09T08:08:18.128Z,86.19
2018-04-09T08:09:18.142Z,86.29
2018-04-09T08:10:18.142Z,86.00
2018-04-09T08:11:18.156Z,84.85
2018-04-09T08:12:18.166Z,84.66
2018-04-09T08:13:18.182Z,86.38
2018-04-09T08:14:18.192Z,86.19
2018-04-09T08:15:18.208Z,85.09
2018-04-09T08:16:18.214Z,86.33
2018-04-09T08:17:18.228Z,86.33
2018-04-09T08:18:18.236Z,84.70
2018-04-09T08:19:18.250Z,82.70
2018-04-09T08:20:18.258Z,81.84
2018-04-09T08:21:18.287Z,79.54
2018-04-09T08:22:18.284Z,77.76
2018-04-09T08:23:18.294Z,76.71
2018-04-09T08:24:18.305Z,75.56
2018-04-09T08:25:18.320Z,73.46
2018-04-09T08:26:18.335Z,72.79
2018-04-09T08:27:18.354Z,73.11
2018-04-09T08:28:18.356Z,73.50
2018-04-09T08:29:18.368Z,74.74
2018-04-09T08:30:18.380Z,73.59
2018-04-09T08:31:18.392Z,72.06
2018-04-09T08:32:18.404Z,71.11
2018-04-09T08:33:18.425Z,71.14
2018-04-09T08:34:18.432Z,72.48
2018-04-09T08:35:18.440Z,70.95
2018-04-09T08:36:18.458Z,70.95
2018-04-09T08:37:18.467Z,72.58
2018-04-09T08:38:18.478Z,72.29
2018-04-09T08:39:18.490Z,71.33
2018-04-09T08:40:18.519Z,70.18
2018-04-09T08:41:18.514Z,70.37
2018-04-09T08:42:18.528Z,70.18
2018-04-09T08:43:18.544Z,70.09
2018-04-09T08:44:18.553Z,70.66
2018-04-09T08:45:18.567Z,69.23
2018-04-09T08:46:18.579Z,67.60
2018-04-09T08:47:18.603Z,66.19
2018-04-09T08:48:18.603Z,66.06
2018-04-09T08:49:18.616Z,66.86
2018-04-09T08:50:18.627Z,66.16
2018-04-09T08:51:18.643Z,66.96
2018-04-09T08:52:18.657Z,69.45
2018-04-09T08:53:18.678Z,70.31
2018-04-09T08:54:18.680Z,70.21
2018-04-09T08:55:18.694Z,68.87
2018-04-09T08:56:18.705Z,68.11
2018-04-09T08:57:18.718Z,67.34
2018-04-09T08:58:18.736Z,68.21
2018-04-09T08:59:18.751Z,69.17
2018-04-09T09:00:18.757Z,68.11
2018-04-09T09:01:18.769Z,69.54
2018-04-09T09:02:18.785Z,69.20
2018-04-09T09:03:18.795Z,68.52
2018-04-09T09:04:18.810Z,69.48
2018-04-09T09:05:18.830Z,68.91
2018-04-09T09:06:18.835Z,66.83
2018-04-09T09:07:18.848Z,67.28
2018-04-09T09:08:18.865Z,68.52
2018-04-09T09:09:18.873Z,66.22
2018-04-09T09:10:18.888Z,67.09
2018-04-09T09:11:18.907Z,67.66
2018-04-09T09:12:18.916Z,67.38
2018-04-09T09:13:18.927Z,67.95
2018-04-09T09:14:18.943Z,67.38
2018-04-09T09:15:18.954Z,67.47
2018-04-09T09:16:18.968Z,66.35
2018-04-09T09:17:18.992Z,65.55
2018-04-09T09:18:18.995Z,66.16
2018-04-09T09:19:19.008Z,66.64
2018-04-09T09:20:19.023Z,66.64
2018-04-09T09:21:19.040Z,67.41
2018-04-09T09:22:19.049Z,66.26
2018-04-09T09:23:19.079Z,66.16
2018-04-09T09:24:19.078Z,66.16
2018-04-09T09:25:19.089Z,66.16
2018-04-09T09:26:19.102Z,64.82
2018-04-09T09:27:19.111Z,66.26
2018-04-09T09:28:19.129Z,65.49
2018-04-09T09:29:19.148Z,65.59
2018-04-09T09:30:19.156Z,64.53
2018-04-09T09:31:19.170Z,65.33
2018-04-09T09:32:19.184Z,65.91
2018-04-09T09:33:19.199Z,64.09
2018-04-09T09:34:19.211Z,64.09
2018-04-09T09:35:19.231Z,62.74
2018-04-09T09:36:19.250Z,62.93
2018-04-09T09:37:19.252Z,62.55
2018-04-09T09:38:19.264Z,62.93
2018-04-09T09:39:19.277Z,64.28
2018-04-09T09:40:19.290Z,63.60
2018-04-09T09:41:19.314Z,64.47
2018-04-09T09:42:19.316Z,65.62
2018-04-09T09:43:19.330Z,66.19
2018-04-09T09:44:19.346Z,66.49
2018-04-09T09:45:19.363Z,66.00
2018-04-09T09:46:19.373Z,64.56
2018-04-09T09:47:19.392Z,64.47
2018-04-09T09:48:19.400Z,65.08
2018-04-09T09:49:19.480Z,64.50
2018-04-09T09:50:19.430Z,61.62
2018-04-09T09:51:19.443Z,59.51
2018-04-09T09:52:19.457Z,59.34
2018-04-09T09:53:19.479Z,60.02
2018-04-09T09:54:19.484Z,60.02
2018-04-09T09:55:19.497Z,60.21
2018-04-09T09:56:19.512Z,58.96
2018-04-09T09:57:19.525Z,58.99
2018-04-09T09:58:19.540Z,59.06
2018-04-09T09:59:19.554Z,58.10
2018-04-09T10:00:19.573Z,58.29
2018-04-09T10:01:19.586Z,57.04
2018-04-09T10:02:19.595Z,56.95
2018-04-09T10:03:19.611Z,57.33
2018-04-09T10:04:19.623Z,58.10
2018-04-09T10:05:19.638Z,58.10
2018-04-09T10:06:19.670Z,57.33
2018-04-09T10:07:19.678Z,57.52
2018-04-09T10:08:19.680Z,57.30
2018-04-09T10:09:19.693Z,59.16
2018-04-09T10:10:19.708Z,58.96
2018-04-09T10:11:19.725Z,59.54
2018-04-09T10:12:19.736Z,60.02
2018-04-09T10:13:19.758Z,59.73
2018-04-09T10:14:19.766Z,58.13
2018-04-09T10:15:19.784Z,58.32
2018-04-09T10:16:19.805Z,56.49
2018-04-09T10:17:19.808Z,57.55
2018-04-09T10:18:19.828Z,57.36
2018-04-09T10:19:19.849Z,54.09
2018-04-09T10:20:19.884Z,52.36
2018-04-09T10:21:19.866Z,52.20
2018-04-09T10:22:19.882Z,52.20
2018-04-09T10:23:19.892Z,50.95
2018-04-09T10:24:19.916Z,52.10
2018-04-09T10:25:19.922Z,52.20
2018-04-09T10:26:19.938Z,50.95
2018-04-09T10:27:19.954Z,50.95
2018-04-09T10:28:19.967Z,51.55
2018-04-09T10:29:19.981Z,50.68
2018-04-09T10:30:20.007Z,50.81
2018-04-09T10:31:20.012Z,48.21
2018-04-09T10:32:20.024Z,48.02
2018-04-09T10:33:20.042Z,45.51
2018-04-09T10:34:20.098Z,45.53
2018-04-09T10:35:20.068Z,49.00
2018-04-09T10:36:20.093Z,47.56
2018-04-09T10:37:20.099Z,46.21
2018-04-09T10:38:20.114Z,44.67
2018-04-09T10:39:20.126Z,47.00
2018-04-09T10:40:20.143Z,46.62
2018-04-09T10:41:20.161Z,45.75
2018-04-09T10:42:20.185Z,44.59
2018-04-09T10:43:20.190Z,41.22
2018-04-09T10:44:20.204Z,42.40
2018-04-09T10:45:20.219Z,39.79
2018-04-09T10:46:20.238Z,40.57
2018-04-09T10:47:20.251Z,43.17
2018-04-09T10:48:20.274Z,41.92
2018-04-09T10:49:20.282Z,42.59
2018-04-09T10:50:20.300Z,42.30
2018-04-09T10:51:20.315Z,41.14
2018-04-09T10:52:20.330Z,42.11
2018-04-09T10:53:20.351Z,42.03
2018-04-09T10:54:20.361Z,41.53
2018-04-09T10:55:20.388Z,39.70
2018-04-09T10:56:20.394Z,37.48
2018-04-09T10:57:20.411Z,37.12
2018-04-09T10:58:20.488Z,38.56
2018-04-09T10:59:20.441Z,40.30
2018-04-09T11:00:20.459Z,39.72
2018-04-09T11:01:20.481Z,37.81
2018-04-09T11:02:20.491Z,38.10
2018-04-09T11:03:20.506Z,38.49
2018-04-09T11:04:20.525Z,38.10
2018-04-09T11:05:20.540Z,36.87
2018-04-09T11:06:20.556Z,37.95
2018-04-09T11:07:20.576Z,39.28
2018-04-09T11:08:20.589Z,39.06
2018-04-09T11:09:20.609Z,37.15
2018-04-09T11:10:20.624Z,38.21
2018-04-09T11:11:20.642Z,39.28
2018-04-09T11:12:20.656Z,37.37
2018-04-09T11:13:20.686Z,37.12
2018-04-09T11:14:20.690Z,36.36
2018-04-09T11:15:20.714Z,33.97
2018-04-09T11:16:20.725Z,34.57
2018-04-09T11:17:20.745Z,33.33
2018-04-09T11:18:20.761Z,32.75
2018-04-09T11:19:20.787Z,33.06
2018-04-09T11:20:20.801Z,31.32
2018-04-09T11:21:20.816Z,33.07
2018-04-09T11:22:20.834Z,30.82
2018-04-09T11:23:20.859Z,30.15
2018-04-09T11:24:20.902Z,29.84
2018-04-09T11:25:20.896Z,30.23
2018-04-09T11:26:20.914Z,29.46
2018-04-09T11:27:20.935Z,28.86
2018-04-09T11:28:20.957Z,29.61
2018-04-09T11:29:21.753Z,29.24
2018-04-09T11:30:21.005Z,29.60
2018-04-09T11:31:21.016Z,30.29
2018-04-09T11:32:21.036Z,31.05
2018-04-09T11:33:21.056Z,32.62
2018-04-09T11:34:21.076Z,30.98
2018-04-09T11:35:21.095Z,31.65
2018-04-09T11:36:21.128Z,30.78
2018-04-09T11:37:21.143Z,32.14
2018-04-09T11:38:21.165Z,30.31
2018-04-09T11:39:21.182Z,29.73
2018-04-09T11:40:21.205Z,29.53
2018-04-09T11:41:21.224Z,30.39
2018-04-09T11:42:21.254Z,29.91
2018-04-09T11:43:21.265Z,30.89
2018-04-09T11:44:21.285Z,29.94
2018-04-09T11:45:21.313Z,29.58
2018-04-09T11:46:21.324Z,29.38
2018-04-09T11:47:21.348Z,28.40
2018-04-09T11:48:21.376Z,28.90
2018-04-09T11:49:21.389Z,28.13
2018-04-09T11:50:21.411Z,28.33
2018-04-09T11:51:21.427Z,27.57
2018-04-09T11:52:21.452Z,29.14
2018-04-09T11:53:21.471Z,27.48
2018-04-09T11:54:21.504Z,25.93
2018-04-09T11:55:21.516Z,26.40
2018-04-09T11:56:21.534Z,25.99
2018-04-09T11:57:21.559Z,25.99
2018-04-09T11:58:21.580Z,27.72
2018-04-09T11:59:21.601Z,26.06
2018-04-09T12:00:21.627Z,25.88
2018-04-09T12:01:21.642Z,25.60
2018-04-09T12:02:21.666Z,27.46
2018-04-09T12:03:21.683Z,28.55
2018-04-09T12:04:21.707Z,25.84
2018-04-09T12:05:21.729Z,25.46
2018-04-09T12:06:21.757Z,26.32
2018-04-09T12:07:21.772Z,26.72
2018-04-09T12:08:21.793Z,24.69
2018-04-09T12:09:21.813Z,25.18
2018-04-09T12:10:21.842Z,27.05
2018-04-09T12:11:21.864Z,26.07
2018-04-09T12:12:21.881Z,26.08
2018-04-09T12:13:21.906Z,28.39
2018-04-09T12:14:21.929Z,26.21
2018-04-09T12:15:21.949Z,26.29
2018-04-09T12:16:21.972Z,27.54
2018-04-09T12:17:22.010Z,29.00
2018-04-09T12:18:22.023Z,28.49
2018-04-09T12:19:22.038Z,27.71
2018-04-09T12:20:22.065Z,29.44
2018-04-09T12:21:22.086Z,29.94
2018-04-09T12:22:22.107Z,30.63
2018-04-09T12:23:22.131Z,29.28
2018-04-09T12:24:22.150Z,30.65
2018-04-09T12:25:22.175Z,30.35
2018-04-09T12:26:22.199Z,28.91
2018-04-09T12:27:22.223Z,26.87
2018-04-09T12:28:22.235Z,26.20
2018-04-09T12:29:22.267Z,26.28
2018-04-09T12:30:22.281Z,26.18
2018-04-09T12:31:22.303Z,25.88
2018-04-09T12:32:22.323Z,27.53
2018-04-09T12:33:22.345Z,28.09
2018-04-09T12:34:22.368Z,28.86
2018-04-09T12:35:22.391Z,26.73
2018-04-09T12:36:22.409Z,26.04
2018-04-09T12:37:22.428Z,25.66
2018-04-09T12:38:22.450Z,26.06
2018-04-09T12:39:22.473Z,25.58
2018-04-09T12:40:22.495Z,26.05
2018-04-09T12:41:22.521Z,27.20
2018-04-09T12:42:22.533Z,27.58
2018-04-09T12:43:22.550Z,28.26
2018-04-09T12:44:22.574Z,28.49
2018-04-09T12:45:22.591Z,27.45
2018-04-09T12:46:22.614Z,26.10
2018-04-09T12:47:22.646Z,25.12
2018-04-09T12:48:22.657Z,25.81
2018-04-09T12:49:22.675Z,27.36
2018-04-09T12:50:22.703Z,28.04
2018-04-09T12:51:22.716Z,30.52
2018-04-09T12:52:22.735Z,32.28